FFT1482 KDFW-KATL
Flight info
| Callsign | FFT1482 |
|---|---|
| Flight time | 1h 35m |
| Altitude | 35000 |
| Route | TRYTN4 LOOSE MEMFS HUTCC KNSAW RUSSA GLAVN2 |
| Aircraft | A321/M-SDE3FGHIRWY/LB1 |
Departure
| Time | 2026-05-05 12:16 |
|---|---|
| Airport | Dallas Fort Worth International Airport (KDFW) |
Arrival
| Time | 2026-05-05 13:51 |
|---|---|
| Airport | Hartsfield Jackson Atlanta International Airport (KATL) |
| Time | Latitude | Longitude | Altitude | Speed | Heading |
|---|---|---|---|---|---|
| 2026-05-05 11:45 | 32.89474 | -97.03697 | 616 ft | 0 kts | 349° |
| 2026-05-05 12:04 | 32.89455 | -97.03693 | 634 ft | 4 kts | 2° |
| 2026-05-05 12:05 | 32.89438 | -97.03696 | 620 ft | 4 kts | 25° |
| 2026-05-05 12:05 | 32.89418 | -97.03722 | 626 ft | 3 kts | 88° |
| 2026-05-05 12:05 | 32.89418 | -97.03729 | 624 ft | 1 kts | 90° |
| 2026-05-05 12:05 | 32.89418 | -97.03731 | 624 ft | 0 kts | 90° |
| 2026-05-05 12:08 | 32.89418 | -97.03721 | 632 ft | 6 kts | 90° |
| 2026-05-05 12:09 | 32.89417 | -97.03600 | 621 ft | 22 kts | 91° |
| 2026-05-05 12:09 | 32.89413 | -97.03423 | 622 ft | 20 kts | 92° |
| 2026-05-05 12:09 | 32.89398 | -97.03263 | 629 ft | 19 kts | 100° |
| 2026-05-05 12:09 | 32.89439 | -97.03195 | 625 ft | 9 kts | 4° |
| 2026-05-05 12:10 | 32.89532 | -97.03198 | 625 ft | 15 kts | 6° |
| 2026-05-05 12:10 | 32.89627 | -97.03194 | 621 ft | 13 kts | 2° |
| 2026-05-05 12:10 | 32.89711 | -97.03191 | 620 ft | 11 kts | 0° |
| 2026-05-05 12:10 | 32.89822 | -97.03191 | 622 ft | 22 kts | 360° |
| 2026-05-05 12:11 | 32.89973 | -97.03191 | 616 ft | 21 kts | 0° |
| 2026-05-05 12:11 | 32.90108 | -97.03190 | 620 ft | 19 kts | 0° |
| 2026-05-05 12:11 | 32.90230 | -97.03189 | 624 ft | 16 kts | 0° |
| 2026-05-05 12:11 | 32.90338 | -97.03188 | 622 ft | 14 kts | 0° |
| 2026-05-05 12:12 | 32.90441 | -97.03188 | 621 ft | 18 kts | 0° |
| 2026-05-05 12:12 | 32.90588 | -97.03187 | 620 ft | 23 kts | 0° |
| 2026-05-05 12:12 | 32.90739 | -97.03185 | 616 ft | 21 kts | 1° |
| 2026-05-05 12:12 | 32.90875 | -97.03182 | 623 ft | 19 kts | 1° |
| 2026-05-05 12:13 | 32.90998 | -97.03181 | 626 ft | 16 kts | 357° |
| 2026-05-05 12:13 | 32.91105 | -97.03184 | 623 ft | 14 kts | 0° |
| 2026-05-05 12:13 | 32.91199 | -97.03184 | 626 ft | 13 kts | 0° |
| 2026-05-05 12:13 | 32.91286 | -97.03183 | 622 ft | 14 kts | 0° |
| 2026-05-05 12:14 | 32.91388 | -97.03175 | 622 ft | 11 kts | 24° |
| 2026-05-05 12:14 | 32.91419 | -97.03104 | 621 ft | 9 kts | 85° |
| 2026-05-05 12:14 | 32.91418 | -97.03037 | 625 ft | 7 kts | 93° |
| 2026-05-05 12:14 | 32.91400 | -97.02996 | 616 ft | 5 kts | 156° |
| 2026-05-05 12:15 | 32.91365 | -97.02990 | 623 ft | 8 kts | 174° |
| 2026-05-05 12:15 | 32.91127 | -97.02981 | 616 ft | 67 kts | 181° |
| 2026-05-05 12:15 | 32.90461 | -97.03000 | 629 ft | 121 kts | 181° |
| 2026-05-05 12:15 | 32.89472 | -97.03009 | 642 ft | 160 kts | 180° |
| 2026-05-05 12:16 | 32.88369 | -97.03033 | 1254 ft | 155 kts | 182° |
| 2026-05-05 12:16 | 32.87326 | -97.03034 | 2024 ft | 144 kts | 184° |
| 2026-05-05 12:16 | 32.86336 | -97.02953 | 2616 ft | 147 kts | 180° |
| 2026-05-05 12:16 | 32.85320 | -97.02538 | 2960 ft | 162 kts | 165° |
| 2026-05-05 12:17 | 32.84330 | -97.01809 | 3205 ft | 173 kts | 159° |
| 2026-05-05 12:17 | 32.83267 | -97.01016 | 3352 ft | 187 kts | 159° |
| 2026-05-05 12:17 | 32.82122 | -97.00184 | 3561 ft | 199 kts | 158° |
| 2026-05-05 12:17 | 32.80899 | -96.99304 | 3748 ft | 212 kts | 158° |
| 2026-05-05 12:18 | 32.79603 | -96.98350 | 3911 ft | 225 kts | 152° |
| 2026-05-05 12:18 | 32.78521 | -96.96985 | 4424 ft | 231 kts | 126° |
| 2026-05-05 12:18 | 32.77867 | -96.95226 | 4741 ft | 236 kts | 110° |
| 2026-05-05 12:18 | 32.77358 | -96.93332 | 4906 ft | 247 kts | 108° |
| 2026-05-05 12:19 | 32.76941 | -96.91339 | 5265 ft | 245 kts | 96° |
| 2026-05-05 12:19 | 32.76861 | -96.89329 | 5654 ft | 247 kts | 91° |
| 2026-05-05 12:19 | 32.76843 | -96.87238 | 5780 ft | 260 kts | 90° |
| 2026-05-05 12:19 | 32.76861 | -96.85064 | 5897 ft | 274 kts | 89° |
| 2026-05-05 12:20 | 32.77040 | -96.82712 | 6069 ft | 289 kts | 77° |
| 2026-05-05 12:20 | 32.77580 | -96.80429 | 6345 ft | 299 kts | 71° |
| 2026-05-05 12:20 | 32.78209 | -96.78015 | 6685 ft | 310 kts | 71° |
| 2026-05-05 12:20 | 32.78851 | -96.75547 | 7243 ft | 313 kts | 71° |
| 2026-05-05 12:21 | 32.79499 | -96.73067 | 7873 ft | 315 kts | 71° |
| 2026-05-05 12:21 | 32.80151 | -96.70571 | 8471 ft | 318 kts | 71° |
| 2026-05-05 12:21 | 32.80804 | -96.68055 | 9099 ft | 320 kts | 71° |
| 2026-05-05 12:21 | 32.81462 | -96.65511 | 9728 ft | 322 kts | 71° |
| 2026-05-05 12:22 | 32.82122 | -96.62952 | 9980 ft | 325 kts | 71° |
| 2026-05-05 12:22 | 32.82794 | -96.60348 | 10282 ft | 337 kts | 71° |
| 2026-05-05 12:22 | 32.83503 | -96.57607 | 10395 ft | 357 kts | 71° |
| 2026-05-05 12:22 | 32.84250 | -96.54712 | 10540 ft | 374 kts | 71° |
| 2026-05-05 12:23 | 32.85020 | -96.51719 | 10936 ft | 382 kts | 71° |
| 2026-05-05 12:23 | 32.85799 | -96.48682 | 11446 ft | 386 kts | 71° |
| 2026-05-05 12:23 | 32.86584 | -96.45614 | 11970 ft | 390 kts | 71° |
| 2026-05-05 12:23 | 32.87376 | -96.42509 | 12499 ft | 394 kts | 71° |
| 2026-05-05 12:24 | 32.88173 | -96.39381 | 13021 ft | 398 kts | 71° |
| 2026-05-05 12:24 | 32.88982 | -96.36205 | 13560 ft | 402 kts | 71° |
| 2026-05-05 12:24 | 32.89807 | -96.33013 | 14022 ft | 406 kts | 70° |
| 2026-05-05 12:24 | 32.90729 | -96.29824 | 14509 ft | 409 kts | 68° |
| 2026-05-05 12:25 | 32.91746 | -96.26655 | 15001 ft | 412 kts | 66° |
| 2026-05-05 12:25 | 32.92820 | -96.23480 | 15483 ft | 415 kts | 65° |
| 2026-05-05 12:25 | 32.93912 | -96.20290 | 15977 ft | 418 kts | 65° |
| 2026-05-05 12:25 | 32.95005 | -96.17057 | 16462 ft | 422 kts | 65° |
| 2026-05-05 12:26 | 32.96090 | -96.13791 | 16939 ft | 426 kts | 65° |
| 2026-05-05 12:26 | 32.97166 | -96.10496 | 17410 ft | 430 kts | 66° |
| 2026-05-05 12:26 | 32.98242 | -96.07155 | 17878 ft | 433 kts | 66° |
| 2026-05-05 12:26 | 32.99320 | -96.03792 | 18300 ft | 437 kts | 66° |
| 2026-05-05 12:27 | 33.00406 | -96.00396 | 18711 ft | 440 kts | 66° |
| 2026-05-05 12:27 | 33.01501 | -95.96980 | 19131 ft | 442 kts | 66° |
| 2026-05-05 12:27 | 33.02602 | -95.93547 | 19552 ft | 445 kts | 65° |
| 2026-05-05 12:27 | 33.03712 | -95.90083 | 19952 ft | 447 kts | 66° |
| 2026-05-05 12:28 | 33.04823 | -95.86611 | 20359 ft | 450 kts | 66° |
| 2026-05-05 12:28 | 33.05929 | -95.83153 | 20750 ft | 452 kts | 66° |
| 2026-05-05 12:28 | 33.07068 | -95.79598 | 21172 ft | 455 kts | 65° |
| 2026-05-05 12:28 | 33.08208 | -95.76063 | 21592 ft | 458 kts | 65° |
| 2026-05-05 12:29 | 33.09353 | -95.72512 | 21994 ft | 460 kts | 65° |
| 2026-05-05 12:29 | 33.10485 | -95.68991 | 22385 ft | 462 kts | 66° |
| 2026-05-05 12:29 | 33.11636 | -95.65396 | 22779 ft | 465 kts | 66° |
| 2026-05-05 12:29 | 33.12791 | -95.61780 | 23149 ft | 468 kts | 66° |
| 2026-05-05 12:30 | 33.13952 | -95.58137 | 23498 ft | 470 kts | 66° |
| 2026-05-05 12:30 | 33.15114 | -95.54482 | 23792 ft | 473 kts | 65° |
| 2026-05-05 12:30 | 33.16282 | -95.50807 | 24077 ft | 476 kts | 65° |
| 2026-05-05 12:30 | 33.17460 | -95.47101 | 24347 ft | 479 kts | 65° |
| 2026-05-05 12:31 | 33.18644 | -95.43378 | 24615 ft | 482 kts | 65° |
| 2026-05-05 12:31 | 33.19837 | -95.39631 | 24900 ft | 484 kts | 65° |
| 2026-05-05 12:31 | 33.21035 | -95.35863 | 25176 ft | 487 kts | 65° |
| 2026-05-05 12:31 | 33.22236 | -95.32063 | 25439 ft | 490 kts | 65° |
| 2026-05-05 12:32 | 33.23444 | -95.28238 | 25699 ft | 493 kts | 64° |
| 2026-05-05 12:32 | 33.24657 | -95.24392 | 25966 ft | 496 kts | 64° |
| 2026-05-05 12:32 | 33.25878 | -95.20521 | 26236 ft | 499 kts | 64° |
| 2026-05-05 12:32 | 33.27103 | -95.16631 | 26505 ft | 501 kts | 64° |
| 2026-05-05 12:33 | 33.28337 | -95.12712 | 26766 ft | 504 kts | 64° |
| 2026-05-05 12:33 | 33.29575 | -95.08781 | 27024 ft | 507 kts | 64° |
| 2026-05-05 12:33 | 33.30820 | -95.04832 | 27278 ft | 510 kts | 64° |
| 2026-05-05 12:33 | 33.32070 | -95.00855 | 27528 ft | 512 kts | 64° |
| 2026-05-05 12:34 | 33.33319 | -94.96851 | 27771 ft | 515 kts | 64° |
| 2026-05-05 12:34 | 33.34570 | -94.92826 | 28011 ft | 518 kts | 64° |
| 2026-05-05 12:34 | 33.35827 | -94.88781 | 28248 ft | 520 kts | 64° |
| 2026-05-05 12:34 | 33.37092 | -94.84715 | 28483 ft | 522 kts | 64° |
| 2026-05-05 12:35 | 33.38363 | -94.80636 | 28702 ft | 525 kts | 63° |
| 2026-05-05 12:35 | 33.39641 | -94.76531 | 28920 ft | 527 kts | 63° |
| 2026-05-05 12:35 | 33.40919 | -94.72415 | 29140 ft | 529 kts | 63° |
| 2026-05-05 12:35 | 33.42202 | -94.68276 | 29358 ft | 532 kts | 63° |
| 2026-05-05 12:36 | 33.43491 | -94.64118 | 29579 ft | 534 kts | 63° |
| 2026-05-05 12:36 | 33.44786 | -94.59939 | 29800 ft | 536 kts | 63° |
| 2026-05-05 12:36 | 33.46083 | -94.55742 | 29993 ft | 538 kts | 63° |
| 2026-05-05 12:36 | 33.47382 | -94.51532 | 30225 ft | 539 kts | 63° |
| 2026-05-05 12:37 | 33.48674 | -94.47323 | 30517 ft | 538 kts | 63° |
| 2026-05-05 12:37 | 33.49967 | -94.43111 | 30805 ft | 538 kts | 63° |
| 2026-05-05 12:37 | 33.51264 | -94.38893 | 31084 ft | 538 kts | 63° |
| 2026-05-05 12:37 | 33.52554 | -94.34687 | 31362 ft | 538 kts | 63° |
| 2026-05-05 12:38 | 33.53839 | -94.30480 | 31637 ft | 538 kts | 63° |
| 2026-05-05 12:38 | 33.55126 | -94.26264 | 31901 ft | 538 kts | 63° |
| 2026-05-05 12:38 | 33.56407 | -94.22050 | 32177 ft | 539 kts | 64° |
| 2026-05-05 12:38 | 33.57678 | -94.17818 | 32455 ft | 539 kts | 64° |
| 2026-05-05 12:39 | 33.58937 | -94.13584 | 32730 ft | 539 kts | 64° |
| 2026-05-05 12:39 | 33.60194 | -94.09336 | 32992 ft | 539 kts | 64° |
| 2026-05-05 12:39 | 33.61445 | -94.05099 | 33253 ft | 539 kts | 64° |
| 2026-05-05 12:39 | 33.62682 | -94.00911 | 33509 ft | 540 kts | 63° |
| 2026-05-05 12:40 | 33.63939 | -93.96664 | 33763 ft | 540 kts | 63° |
| 2026-05-05 12:40 | 33.65196 | -93.92418 | 33986 ft | 540 kts | 63° |
| 2026-05-05 12:40 | 33.66452 | -93.88176 | 34207 ft | 540 kts | 63° |
| 2026-05-05 12:40 | 33.67707 | -93.83929 | 34414 ft | 540 kts | 63° |
| 2026-05-05 12:41 | 33.68959 | -93.79691 | 34626 ft | 540 kts | 63° |
| 2026-05-05 12:41 | 33.70213 | -93.75434 | 34770 ft | 540 kts | 63° |
| 2026-05-05 12:41 | 33.72693 | -93.66956 | 34801 ft | 536 kts | 63° |
| 2026-05-05 12:42 | 33.75158 | -93.58505 | 34801 ft | 535 kts | 63° |
| 2026-05-05 12:42 | 33.77620 | -93.50070 | 34808 ft | 535 kts | 63° |
| 2026-05-05 12:43 | 33.80086 | -93.41618 | 34811 ft | 535 kts | 63° |
| 2026-05-05 12:43 | 33.82546 | -93.33166 | 34819 ft | 535 kts | 63° |
| 2026-05-05 12:44 | 33.84993 | -93.24710 | 34826 ft | 535 kts | 63° |
| 2026-05-05 12:44 | 33.87434 | -93.16247 | 34837 ft | 535 kts | 63° |
| 2026-05-05 12:45 | 33.89927 | -93.07813 | 34845 ft | 530 kts | 58° |
| 2026-05-05 12:45 | 33.92956 | -92.99762 | 34849 ft | 528 kts | 57° |
| 2026-05-05 12:46 | 33.95997 | -92.91722 | 34848 ft | 528 kts | 57° |
| 2026-05-05 12:46 | 33.99026 | -92.83665 | 34847 ft | 528 kts | 57° |
| 2026-05-05 12:47 | 34.02045 | -92.75612 | 34846 ft | 528 kts | 57° |
| 2026-05-05 12:47 | 34.05064 | -92.67541 | 34851 ft | 528 kts | 57° |
| 2026-05-05 12:48 | 34.08075 | -92.59466 | 34852 ft | 528 kts | 57° |
| 2026-05-05 12:48 | 34.10574 | -92.52747 | 34854 ft | 528 kts | 57° |
| 2026-05-05 12:49 | 34.13570 | -92.44672 | 34858 ft | 527 kts | 57° |
| 2026-05-05 12:49 | 34.16566 | -92.36587 | 34860 ft | 527 kts | 57° |
| 2026-05-05 12:50 | 34.19554 | -92.28490 | 34872 ft | 527 kts | 57° |
| 2026-05-05 12:50 | 34.22537 | -92.20396 | 34871 ft | 527 kts | 57° |
| 2026-05-05 12:51 | 34.25513 | -92.12301 | 34889 ft | 527 kts | 56° |
| 2026-05-05 12:51 | 34.28489 | -92.04199 | 34894 ft | 527 kts | 56° |
| 2026-05-05 12:52 | 34.31457 | -91.96091 | 34898 ft | 527 kts | 57° |
| 2026-05-05 12:52 | 34.34416 | -91.87974 | 34890 ft | 527 kts | 57° |
| 2026-05-05 12:53 | 34.37373 | -91.79845 | 34894 ft | 527 kts | 57° |
| 2026-05-05 12:53 | 34.40321 | -91.71717 | 34902 ft | 528 kts | 57° |
| 2026-05-05 12:54 | 34.44743 | -91.59499 | 34910 ft | 528 kts | 57° |
| 2026-05-05 12:55 | 34.47689 | -91.51340 | 34910 ft | 528 kts | 57° |
| 2026-05-05 12:55 | 34.50624 | -91.43187 | 34907 ft | 528 kts | 57° |
| 2026-05-05 12:56 | 34.53562 | -91.35013 | 34905 ft | 528 kts | 57° |
| 2026-05-05 12:56 | 34.56494 | -91.26830 | 34898 ft | 528 kts | 57° |
| 2026-05-05 12:57 | 34.59416 | -91.18654 | 34895 ft | 529 kts | 57° |
| 2026-05-05 12:57 | 34.62329 | -91.10451 | 34893 ft | 529 kts | 57° |
| 2026-05-05 12:58 | 34.65234 | -91.02253 | 34893 ft | 528 kts | 57° |
| 2026-05-05 12:58 | 34.68137 | -90.94056 | 34895 ft | 528 kts | 57° |
| 2026-05-05 12:59 | 34.71037 | -90.85858 | 34896 ft | 528 kts | 57° |
| 2026-05-05 12:59 | 34.73934 | -90.77662 | 34896 ft | 528 kts | 57° |
| 2026-05-05 13:00 | 34.78246 | -90.65401 | 34915 ft | 527 kts | 57° |
| 2026-05-05 13:01 | 34.83981 | -90.48978 | 34930 ft | 526 kts | 57° |
| 2026-05-05 13:01 | 34.86835 | -90.40785 | 34933 ft | 525 kts | 57° |
| 2026-05-05 13:02 | 34.89682 | -90.32607 | 34934 ft | 524 kts | 57° |
| 2026-05-05 13:02 | 34.92527 | -90.24426 | 34927 ft | 523 kts | 57° |
| 2026-05-05 13:03 | 34.95339 | -90.16259 | 34945 ft | 522 kts | 57° |
| 2026-05-05 13:03 | 34.98145 | -90.08101 | 34964 ft | 521 kts | 57° |
| 2026-05-05 13:04 | 35.00347 | -89.99614 | 34956 ft | 538 kts | 73° |
| 2026-05-05 13:04 | 35.00675 | -89.95029 | 34958 ft | 547 kts | 84° |
| 2026-05-05 13:04 | 35.00420 | -89.90361 | 34951 ft | 553 kts | 95° |
| 2026-05-05 13:05 | 34.99126 | -89.81096 | 34961 ft | 554 kts | 96° |
| 2026-05-05 13:05 | 34.97808 | -89.71835 | 34952 ft | 554 kts | 96° |
| 2026-05-05 13:06 | 34.96501 | -89.62575 | 34940 ft | 554 kts | 95° |
| 2026-05-05 13:06 | 34.95194 | -89.53311 | 34926 ft | 554 kts | 96° |
| 2026-05-05 13:07 | 34.93869 | -89.44046 | 34919 ft | 555 kts | 96° |
| 2026-05-05 13:07 | 34.92528 | -89.34775 | 34920 ft | 555 kts | 96° |
| 2026-05-05 13:08 | 34.91181 | -89.25507 | 34920 ft | 556 kts | 96° |
| 2026-05-05 13:08 | 34.89840 | -89.16296 | 34920 ft | 556 kts | 96° |
| 2026-05-05 13:09 | 34.88479 | -89.07011 | 34922 ft | 557 kts | 96° |
| 2026-05-05 13:09 | 34.87116 | -88.97710 | 34937 ft | 557 kts | 96° |
| 2026-05-05 13:10 | 34.85742 | -88.88429 | 34951 ft | 557 kts | 96° |
| 2026-05-05 13:10 | 34.84357 | -88.79145 | 34968 ft | 557 kts | 96° |
| 2026-05-05 13:11 | 34.82964 | -88.69870 | 34975 ft | 558 kts | 96° |
| 2026-05-05 13:11 | 34.81572 | -88.60584 | 34987 ft | 557 kts | 96° |
| 2026-05-05 13:12 | 34.80172 | -88.51318 | 34984 ft | 557 kts | 96° |
| 2026-05-05 13:12 | 34.78754 | -88.42052 | 34982 ft | 556 kts | 96° |
| 2026-05-05 13:13 | 34.77345 | -88.32796 | 34977 ft | 556 kts | 96° |
| 2026-05-05 13:13 | 34.75931 | -88.23558 | 34972 ft | 555 kts | 96° |
| 2026-05-05 13:14 | 34.74505 | -88.14329 | 34980 ft | 555 kts | 96° |
| 2026-05-05 13:14 | 34.73070 | -88.05108 | 34984 ft | 554 kts | 96° |
| 2026-05-05 13:15 | 34.71635 | -87.95918 | 34995 ft | 554 kts | 96° |
| 2026-05-05 13:15 | 34.70195 | -87.86727 | 35003 ft | 553 kts | 96° |
| 2026-05-05 13:16 | 34.68746 | -87.77556 | 35016 ft | 552 kts | 96° |
| 2026-05-05 13:16 | 34.67303 | -87.68460 | 35023 ft | 551 kts | 96° |
| 2026-05-05 13:17 | 34.65850 | -87.59323 | 35022 ft | 551 kts | 96° |
| 2026-05-05 13:17 | 34.64385 | -87.50186 | 35018 ft | 550 kts | 96° |
| 2026-05-05 13:18 | 34.62910 | -87.41066 | 35015 ft | 551 kts | 97° |
| 2026-05-05 13:18 | 34.61291 | -87.31967 | 35016 ft | 551 kts | 98° |
| 2026-05-05 13:19 | 34.59571 | -87.22904 | 35031 ft | 551 kts | 99° |
| 2026-05-05 13:19 | 34.57859 | -87.13848 | 35039 ft | 550 kts | 98° |
| 2026-05-05 13:20 | 34.56200 | -87.04791 | 35043 ft | 549 kts | 97° |
| 2026-05-05 13:20 | 34.54657 | -86.95741 | 35048 ft | 548 kts | 97° |
| 2026-05-05 13:21 | 34.52585 | -86.86806 | 35052 ft | 551 kts | 103° |
| 2026-05-05 13:21 | 34.50292 | -86.77936 | 35051 ft | 551 kts | 104° |
| 2026-05-05 13:22 | 34.47963 | -86.69079 | 35043 ft | 551 kts | 104° |
| 2026-05-05 13:22 | 34.45641 | -86.60239 | 35036 ft | 551 kts | 103° |
| 2026-05-05 13:23 | 34.43324 | -86.51397 | 35026 ft | 550 kts | 104° |
| 2026-05-05 13:23 | 34.41002 | -86.42581 | 35043 ft | 549 kts | 104° |
| 2026-05-05 13:24 | 34.38668 | -86.33768 | 35051 ft | 549 kts | 104° |
| 2026-05-05 13:24 | 34.36341 | -86.24986 | 35060 ft | 548 kts | 104° |
| 2026-05-05 13:25 | 34.34005 | -86.16199 | 35059 ft | 548 kts | 104° |
| 2026-05-05 13:25 | 34.31697 | -86.07418 | 35056 ft | 547 kts | 103° |
| 2026-05-05 13:26 | 34.29437 | -85.98630 | 35049 ft | 547 kts | 103° |
| 2026-05-05 13:26 | 34.27177 | -85.89846 | 35041 ft | 547 kts | 103° |
| 2026-05-05 13:27 | 34.24892 | -85.81069 | 35030 ft | 547 kts | 104° |
| 2026-05-05 13:27 | 34.22583 | -85.72301 | 35012 ft | 549 kts | 104° |
| 2026-05-05 13:28 | 34.20260 | -85.63498 | 35011 ft | 550 kts | 103° |
| 2026-05-05 13:28 | 34.17947 | -85.54702 | 35010 ft | 551 kts | 103° |
| 2026-05-05 13:29 | 34.15620 | -85.45869 | 35023 ft | 552 kts | 103° |
| 2026-05-05 13:29 | 34.13272 | -85.37037 | 35033 ft | 552 kts | 103° |
| 2026-05-05 13:30 | 34.10967 | -85.28202 | 35048 ft | 552 kts | 102° |
| 2026-05-05 13:30 | 34.09828 | -85.23778 | 34749 ft | 550 kts | 102° |
| 2026-05-05 13:30 | 34.09076 | -85.20857 | 33782 ft | 551 kts | 103° |
| 2026-05-05 13:31 | 34.07935 | -85.16428 | 32018 ft | 550 kts | 104° |
| 2026-05-05 13:31 | 34.06426 | -85.10667 | 30177 ft | 535 kts | 108° |
| 2026-05-05 13:31 | 34.04901 | -85.06659 | 28874 ft | 521 kts | 121° |
| 2026-05-05 13:31 | 34.02825 | -85.03175 | 27832 ft | 504 kts | 133° |
| 2026-05-05 13:32 | 34.01193 | -85.01162 | 26966 ft | 492 kts | 141° |
| 2026-05-05 13:32 | 33.98632 | -84.98499 | 25888 ft | 479 kts | 141° |
| 2026-05-05 13:32 | 33.96129 | -84.95913 | 24824 ft | 470 kts | 142° |
| 2026-05-05 13:32 | 33.93675 | -84.93380 | 23945 ft | 459 kts | 142° |
| 2026-05-05 13:33 | 33.91280 | -84.90906 | 22942 ft | 448 kts | 141° |
| 2026-05-05 13:33 | 33.88942 | -84.88485 | 21907 ft | 438 kts | 141° |
| 2026-05-05 13:33 | 33.86690 | -84.86153 | 20926 ft | 429 kts | 141° |
| 2026-05-05 13:33 | 33.84455 | -84.83841 | 19968 ft | 420 kts | 141° |
| 2026-05-05 13:34 | 33.82269 | -84.81578 | 19086 ft | 410 kts | 141° |
| 2026-05-05 13:34 | 33.80144 | -84.79381 | 18587 ft | 390 kts | 141° |
| 2026-05-05 13:34 | 33.78155 | -84.77323 | 18316 ft | 367 kts | 141° |
| 2026-05-05 13:34 | 33.76315 | -84.75297 | 17867 ft | 351 kts | 133° |
| 2026-05-05 13:35 | 33.74868 | -84.72962 | 17482 ft | 350 kts | 121° |
| 2026-05-05 13:35 | 33.73853 | -84.70301 | 17074 ft | 350 kts | 108° |
| 2026-05-05 13:35 | 33.73351 | -84.67561 | 16686 ft | 347 kts | 95° |
| 2026-05-05 13:35 | 33.73289 | -84.64574 | 16282 ft | 347 kts | 89° |
| 2026-05-05 13:36 | 33.73302 | -84.61680 | 15870 ft | 346 kts | 89° |
| 2026-05-05 13:36 | 33.73305 | -84.58790 | 15465 ft | 345 kts | 90° |
| 2026-05-05 13:36 | 33.73303 | -84.55910 | 15075 ft | 344 kts | 90° |
| 2026-05-05 13:36 | 33.73301 | -84.53040 | 14727 ft | 342 kts | 90° |
| 2026-05-05 13:37 | 33.73296 | -84.50180 | 14258 ft | 344 kts | 90° |
| 2026-05-05 13:37 | 33.73292 | -84.47302 | 13857 ft | 344 kts | 90° |
| 2026-05-05 13:37 | 33.73290 | -84.44435 | 13427 ft | 342 kts | 90° |
| 2026-05-05 13:37 | 33.73292 | -84.41586 | 13033 ft | 340 kts | 90° |
| 2026-05-05 13:38 | 33.73295 | -84.38761 | 12641 ft | 338 kts | 90° |
| 2026-05-05 13:38 | 33.73295 | -84.35950 | 12249 ft | 336 kts | 91° |
| 2026-05-05 13:38 | 33.73292 | -84.33153 | 11850 ft | 334 kts | 91° |
| 2026-05-05 13:38 | 33.73289 | -84.30377 | 11455 ft | 332 kts | 91° |
| 2026-05-05 13:39 | 33.73291 | -84.27608 | 11064 ft | 331 kts | 91° |
| 2026-05-05 13:39 | 33.73296 | -84.24851 | 10655 ft | 330 kts | 91° |
| 2026-05-05 13:39 | 33.73300 | -84.22101 | 10272 ft | 328 kts | 91° |
| 2026-05-05 13:39 | 33.73301 | -84.19400 | 10141 ft | 318 kts | 91° |
| 2026-05-05 13:40 | 33.73299 | -84.16788 | 10013 ft | 308 kts | 91° |
| 2026-05-05 13:40 | 33.73298 | -84.14240 | 9737 ft | 303 kts | 91° |
| 2026-05-05 13:40 | 33.73300 | -84.11715 | 9378 ft | 302 kts | 91° |
| 2026-05-05 13:40 | 33.73307 | -84.09199 | 9029 ft | 300 kts | 91° |
| 2026-05-05 13:41 | 33.73314 | -84.06695 | 8681 ft | 299 kts | 91° |
| 2026-05-05 13:41 | 33.73319 | -84.04210 | 8338 ft | 297 kts | 91° |
| 2026-05-05 13:41 | 33.73332 | -84.01748 | 8064 ft | 292 kts | 91° |
| 2026-05-05 13:41 | 33.73363 | -83.99317 | 7939 ft | 290 kts | 90° |
| 2026-05-05 13:42 | 33.73399 | -83.96905 | 7814 ft | 290 kts | 91° |
| 2026-05-05 13:42 | 33.73302 | -83.94495 | 7687 ft | 286 kts | 105° |
| 2026-05-05 13:42 | 33.72544 | -83.92321 | 7570 ft | 281 kts | 127° |
| 2026-05-05 13:42 | 33.71181 | -83.90693 | 7443 ft | 276 kts | 150° |
| 2026-05-05 13:43 | 33.69435 | -83.89820 | 7321 ft | 271 kts | 171° |
| 2026-05-05 13:43 | 33.67571 | -83.89783 | 7203 ft | 268 kts | 192° |
| 2026-05-05 13:43 | 33.65837 | -83.90557 | 7078 ft | 266 kts | 212° |
| 2026-05-05 13:43 | 33.64468 | -83.92031 | 6956 ft | 266 kts | 233° |
| 2026-05-05 13:44 | 33.63637 | -83.94012 | 6847 ft | 268 kts | 253° |
| 2026-05-05 13:44 | 33.63461 | -83.96236 | 6716 ft | 271 kts | 274° |
| 2026-05-05 13:44 | 33.63963 | -83.98421 | 6614 ft | 275 kts | 290° |
| 2026-05-05 13:44 | 33.64645 | -84.00560 | 6481 ft | 273 kts | 282° |
| 2026-05-05 13:45 | 33.64907 | -84.02788 | 6357 ft | 266 kts | 268° |
| 2026-05-05 13:45 | 33.64906 | -84.04963 | 6223 ft | 255 kts | 268° |
| 2026-05-05 13:45 | 33.64911 | -84.07022 | 6091 ft | 245 kts | 268° |
| 2026-05-05 13:45 | 33.64920 | -84.09026 | 5972 ft | 235 kts | 268° |
| 2026-05-05 13:46 | 33.64928 | -84.10961 | 5679 ft | 230 kts | 267° |
| 2026-05-05 13:46 | 33.64933 | -84.12878 | 5408 ft | 224 kts | 267° |
| 2026-05-05 13:46 | 33.64936 | -84.14709 | 5122 ft | 221 kts | 267° |
| 2026-05-05 13:46 | 33.64940 | -84.16542 | 4849 ft | 219 kts | 266° |
| 2026-05-05 13:47 | 33.64941 | -84.18370 | 4566 ft | 218 kts | 266° |
| 2026-05-05 13:47 | 33.64942 | -84.20174 | 4315 ft | 213 kts | 266° |
| 2026-05-05 13:47 | 33.64945 | -84.21906 | 4028 ft | 203 kts | 267° |
| 2026-05-05 13:47 | 33.64948 | -84.23564 | 3774 ft | 195 kts | 266° |
| 2026-05-05 13:48 | 33.64951 | -84.25158 | 3526 ft | 188 kts | 266° |
| 2026-05-05 13:48 | 33.64951 | -84.26720 | 3304 ft | 188 kts | 265° |
| 2026-05-05 13:48 | 33.64950 | -84.28269 | 3047 ft | 183 kts | 266° |
| 2026-05-05 13:48 | 33.64948 | -84.29790 | 2810 ft | 182 kts | 266° |
| 2026-05-05 13:49 | 33.64947 | -84.31307 | 2585 ft | 181 kts | 266° |
| 2026-05-05 13:49 | 33.64948 | -84.32821 | 2355 ft | 182 kts | 267° |
| 2026-05-05 13:49 | 33.64950 | -84.34324 | 2122 ft | 175 kts | 267° |
| 2026-05-05 13:49 | 33.64954 | -84.35688 | 2015 ft | 155 kts | 268° |
| 2026-05-05 13:50 | 33.64957 | -84.36946 | 2012 ft | 149 kts | 267° |
| 2026-05-05 13:50 | 33.64972 | -84.38191 | 1856 ft | 150 kts | 268° |
| 2026-05-05 13:50 | 33.64956 | -84.39455 | 1438 ft | 150 kts | 268° |
| 2026-05-05 13:50 | 33.64955 | -84.40698 | 1134 ft | 148 kts | 268° |
| 2026-05-05 13:51 | 33.64954 | -84.41892 | 1035 ft | 127 kts | 271° |
| 2026-05-05 13:51 | 33.64954 | -84.42696 | 1036 ft | 51 kts | 269° |
| 2026-05-05 13:51 | 33.64952 | -84.42955 | 1035 ft | 16 kts | 270° |
| 2026-05-05 13:51 | 33.64949 | -84.43052 | 1035 ft | 10 kts | 263° |
| 2026-05-05 13:52 | 33.64936 | -84.43134 | 1036 ft | 13 kts | 257° |
| 2026-05-05 13:52 | 33.64889 | -84.43278 | 1035 ft | 23 kts | 244° |
| 2026-05-05 13:52 | 33.64842 | -84.43457 | 1035 ft | 22 kts | 268° |
| 2026-05-05 13:52 | 33.64840 | -84.43635 | 1036 ft | 21 kts | 270° |
| 2026-05-05 13:53 | 33.64841 | -84.43807 | 1035 ft | 20 kts | 264° |
| 2026-05-05 13:53 | 33.64790 | -84.43947 | 1035 ft | 17 kts | 256° |
| 2026-05-05 13:53 | 33.64791 | -84.44075 | 1035 ft | 15 kts | 270° |
| 2026-05-05 13:53 | 33.64787 | -84.44195 | 1035 ft | 14 kts | 268° |
| 2026-05-05 13:54 | 33.64759 | -84.44292 | 1035 ft | 12 kts | 227° |
| 2026-05-05 13:54 | 33.64689 | -84.44334 | 1035 ft | 11 kts | 188° |
| 2026-05-05 13:54 | 33.64621 | -84.44317 | 1035 ft | 10 kts | 155° |
| 2026-05-05 13:54 | 33.64581 | -84.44263 | 1035 ft | 8 kts | 111° |
| 2026-05-05 13:55 | 33.64575 | -84.44202 | 1035 ft | 7 kts | 94° |
| 2026-05-05 13:55 | 33.64565 | -84.44155 | 1035 ft | 5 kts | 129° |
| 2026-05-05 13:55 | 33.64505 | -84.44124 | 1035 ft | 17 kts | 178° |
| 2026-05-05 13:55 | 33.64371 | -84.44120 | 1035 ft | 19 kts | 179° |
| 2026-05-05 13:56 | 33.64240 | -84.44118 | 1035 ft | 17 kts | 179° |
| 2026-05-05 13:56 | 33.64216 | -84.44118 | 1035 ft | 3 kts | 180° |
| 2026-05-05 13:56 | 33.64195 | -84.44140 | 1035 ft | 3 kts | 291° |
| 2026-05-05 13:56 | 33.64204 | -84.44165 | 1035 ft | 5 kts | 289° |
| 2026-05-05 13:57 | 33.64206 | -84.44195 | 1035 ft | 0 kts | 271° |